Time;durP1;ratioP1;P1;durP2;ratioP2;P2;SDS_P1;SDS_P2;PMS_P1;PMS_P2;Temp;Humidity;BMP_temperature;BMP_pressure;BME280_temperature;BME280_humidity;BME280_pressure;Samples;Min_cycle;Max_cycle;Signal;HPM_P1;HPM_P2
2022/12/19 00:00:30;;;;;;;63.27;33.27;;;-6.50;99.90;;;;;;5055601;28;20483;-74
2022/12/19 00:02:59;;;;;;;61.77;31.50;;;-6.40;99.90;;;;;;5061950;28;20460;-73
2022/12/19 00:05:27;;;;;;;66.83;33.17;;;-6.40;99.90;;;;;;5058597;28;20941;-75
2022/12/19 00:07:58;;;;;;;62.23;32.13;;;-6.40;99.90;;;;;;5056834;28;20474;-75
2022/12/19 00:10:33;;;;;;;62.43;33.10;;;-6.40;99.90;;;;;;5056777;28;20484;-77
2022/12/19 00:13:01;;;;;;;58.40;32.67;;;-6.30;99.90;;;;;;5030606;28;20575;-77
2022/12/19 00:15:29;;;;;;;61.33;31.93;;;-6.30;99.90;;;;;;5020438;28;20455;-76
2022/12/19 00:17:58;;;;;;;60.13;32.97;;;-6.40;99.90;;;;;;5056196;28;20818;-78
2022/12/19 00:20:26;;;;;;;59.03;30.87;;;-6.30;99.90;;;;;;5055478;28;20999;-76
2022/12/19 00:22:54;;;;;;;61.10;32.17;;;-6.30;99.90;;;;;;5055298;28;20446;-76
2022/12/19 00:25:22;;;;;;;57.47;31.47;;;-6.30;99.90;;;;;;5053397;28;20472;-76
2022/12/19 00:27:53;;;;;;;59.93;32.10;;;-6.30;99.90;;;;;;5055488;28;20510;-75
2022/12/19 00:30:21;;;;;;;54.67;30.73;;;-6.20;99.90;;;;;;5055155;28;20681;-80
2022/12/19 00:32:49;;;;;;;57.37;30.77;;;-6.20;99.90;;;;;;5053051;28;20452;-76
2022/12/19 00:35:17;;;;;;;57.13;31.47;;;-6.20;99.90;;;;;;5055105;28;20519;-76
2022/12/19 00:37:45;;;;;;;58.73;30.07;;;-6.10;99.90;;;;;;5054929;28;20448;-76
2022/12/19 00:40:17;;;;;;;55.67;29.50;;;-6.10;99.90;;;;;;5034029;28;20482;-77
2022/12/19 00:42:45;;;;;;;55.20;30.53;;;-6.10;99.90;;;;;;5014727;28;20879;-77
2022/12/19 00:45:22;;;;;;;55.83;30.93;;;-5.90;99.90;;;;;;5015302;28;20447;-76
2022/12/19 00:47:50;;;;;;;56.50;31.30;;;-6.00;99.90;;;;;;5015588;28;20508;-77
2022/12/19 00:50:22;;;;;;;50.20;29.40;;;-6.10;99.90;;;;;;5049377;28;20470;-77
2022/12/19 00:52:50;;;;;;;56.17;30.67;;;-6.10;99.90;;;;;;5054251;28;20450;-77
2022/12/19 00:55:18;;;;;;;56.53;31.00;;;-6.00;99.90;;;;;;5053170;28;20981;-76
2022/12/19 00:57:47;;;;;;;56.20;31.57;;;-6.00;99.90;;;;;;5052686;28;20552;-76
2022/12/19 01:00:17;;;;;;;56.07;31.13;;;-6.00;99.90;;;;;;5054064;28;20890;-77
2022/12/19 01:02:46;;;;;;;54.87;30.10;;;-6.00;99.90;;;;;;5054548;28;20467;-78
2022/12/19 01:05:14;;;;;;;57.37;29.93;;;-6.00;99.90;;;;;;5044902;28;20565;-75
2022/12/19 01:07:42;;;;;;;53.10;29.80;;;-6.00;99.90;;;;;;5054699;28;20448;-74
2022/12/19 01:10:10;;;;;;;57.90;31.00;;;-6.00;99.90;;;;;;5056693;28;20535;-75
2022/12/19 01:12:46;;;;;;;57.73;31.00;;;-5.80;99.90;;;;;;5037204;28;20463;-77
2022/12/19 01:15:18;;;;;;;54.57;30.20;;;-5.90;99.90;;;;;;5054499;28;20440;-77
2022/12/19 01:17:49;;;;;;;59.20;30.70;;;-5.80;99.90;;;;;;5053915;28;20534;-77
2022/12/19 01:20:19;;;;;;;52.93;31.10;;;-5.80;99.90;;;;;;5054030;28;20569;-77
2022/12/19 01:22:56;;;;;;;50.97;29.60;;;-5.80;99.90;;;;;;5052751;28;20825;-76
2022/12/19 01:25:27;;;;;;;51.87;30.30;;;-5.70;99.90;;;;;;5050087;28;20450;-77
2022/12/19 01:27:55;;;;;;;54.47;30.57;;;-5.70;99.90;;;;;;5054896;28;20451;-77
2022/12/19 01:30:23;;;;;;;51.37;29.50;;;-5.50;99.90;;;;;;5053893;28;20496;-76
2022/12/19 01:32:54;;;;;;;54.27;29.27;;;-5.70;99.90;;;;;;5054168;28;20490;-76
2022/12/19 01:35:22;;;;;;;53.63;29.87;;;-5.70;99.90;;;;;;5051417;28;20562;-78
2022/12/19 01:37:51;;;;;;;51.33;29.30;;;-5.70;99.90;;;;;;5053594;28;20472;-79
2022/12/19 01:40:32;;;;;;;52.03;30.13;;;-5.70;99.90;;;;;;5053474;28;20479;-74
2022/12/19 01:43:04;;;;;;;51.33;29.00;;;-5.70;99.90;;;;;;5051429;28;20469;-76
2022/12/19 01:45:33;;;;;;;57.47;31.20;;;-5.70;99.90;;;;;;5053728;28;20446;-77
2022/12/19 01:48:15;;;;;;;52.30;30.03;;;-5.70;99.90;;;;;;5053171;28;20560;-75
2022/12/19 01:50:54;;;;;;;56.87;31.07;;;-5.70;99.90;;;;;;5053233;28;20429;-76
2022/12/19 01:53:35;;;;;;;55.47;30.07;;;-5.70;99.90;;;;;;5051393;28;20466;-76
2022/12/19 01:56:19;;;;;;;56.03;30.73;;;-5.70;99.90;;;;;;5053239;28;20780;-76
2022/12/19 01:58:49;;;;;;;60.87;32.47;;;-5.70;99.90;;;;;;5052962;28;20461;-76
2022/12/19 02:01:22;;;;;;;56.83;30.47;;;-5.70;99.90;;;;;;5053753;28;20500;-75
2022/12/19 02:03:53;;;;;;;55.97;31.13;;;-5.60;99.90;;;;;;5051974;28;20465;-76
2022/12/19 02:06:22;;;;;;;58.83;32.00;;;-5.70;99.90;;;;;;5052781;28;20436;-74
2022/12/19 02:08:51;;;;;;;56.93;30.93;;;-5.60;99.90;;;;;;5049672;28;20468;-75
2022/12/19 02:11:19;;;;;;;57.53;31.57;;;-5.60;99.90;;;;;;5016014;28;20486;-77
2022/12/19 02:13:47;;;;;;;60.07;33.83;;;-5.60;99.90;;;;;;5053162;28;21025;-78
2022/12/19 02:16:26;;;;;;;56.60;31.90;;;-5.50;99.90;;;;;;5052921;28;20950;-76
2022/12/19 02:19:08;;;;;;;58.17;31.83;;;-5.50;99.90;;;;;;5053026;28;20431;-75
2022/12/19 02:21:49;;;;;;;57.50;31.37;;;-5.50;99.90;;;;;;5051451;28;20482;-76
2022/12/19 02:24:55;;;;;;;56.27;30.67;;;-5.50;99.90;;;;;;5053126;28;20434;-76
2022/12/19 02:27:54;;;;;;;52.90;30.13;;;-5.50;99.90;;;;;;5051597;28;20901;-75
2022/12/19 02:30:44;;;;;;;61.27;32.70;;;-5.60;99.90;;;;;;5052571;28;20470;-76
2022/12/19 02:33:22;;;;;;;57.30;30.73;;;-5.60;99.90;;;;;;5052586;28;20428;-77
2022/12/19 02:35:54;;;;;;;57.93;32.47;;;-5.50;99.90;;;;;;5035937;28;20442;-78
2022/12/19 02:38:33;;;;;;;61.73;33.03;;;-5.60;99.90;;;;;;5052525;28;20467;-77
2022/12/19 02:41:06;;;;;;;54.50;31.17;;;-5.50;99.90;;;;;;5052828;28;20498;-75
2022/12/19 02:43:39;;;;;;;57.37;31.90;;;-5.50;99.90;;;;;;5052909;28;20431;-78
2022/12/19 02:46:11;;;;;;;60.23;32.77;;;-5.50;99.90;;;;;;5051188;28;20488;-76
2022/12/19 02:48:40;;;;;;;55.03;31.80;;;-5.60;99.90;;;;;;5052225;28;20488;-77
2022/12/19 02:51:08;;;;;;;57.90;32.17;;;-5.50;99.90;;;;;;5052268;28;20962;-74
2022/12/19 02:53:38;;;;;;;55.77;30.60;;;-5.50;99.90;;;;;;5050670;28;20970;-79
2022/12/19 02:56:22;;;;;;;57.70;31.70;;;-5.50;99.90;;;;;;5052309;28;20433;-75
2022/12/19 02:59:00;;;;;;;55.50;30.83;;;-5.50;99.90;;;;;;5036021;28;20489;-75
2022/12/19 03:01:42;;;;;;;60.53;32.40;;;-5.60;99.90;;;;;;5052548;28;20493;-77
2022/12/19 03:04:19;;;;;;;56.87;31.00;;;-5.60;99.90;;;;;;5034200;28;20568;-77
2022/12/19 03:06:53;;;;;;;59.17;31.37;;;-5.60;99.90;;;;;;5052344;28;20799;-79
2022/12/19 03:09:29;;;;;;;57.00;31.27;;;-5.60;99.90;;;;;;5016799;28;20454;-79
2022/12/19 03:12:04;;;;;;;56.87;31.00;;;-5.70;99.90;;;;;;5018913;28;20549;-80
2022/12/19 03:14:33;;;;;;;53.97;30.30;;;-5.70;99.90;;;;;;5051974;28;20924;-79
2022/12/19 03:17:08;;;;;;;56.80;30.30;;;-5.70;99.90;;;;;;5051510;28;20851;-78
2022/12/19 03:19:39;;;;;;;59.77;31.67;;;-5.70;99.90;;;;;;5052071;28;20464;-80
2022/12/19 03:22:08;;;;;;;60.00;32.03;;;-5.70;99.90;;;;;;5049717;28;20571;-78
2022/12/19 03:24:36;;;;;;;58.20;32.83;;;-5.60;99.90;;;;;;5052091;28;20541;-81
2022/12/19 03:27:09;;;;;;;56.73;32.30;;;-5.60;99.90;;;;;;5051800;28;20547;-77
2022/12/19 03:29:42;;;;;;;57.60;31.87;;;-5.60;99.90;;;;;;5050772;28;20829;-77
2022/12/19 03:32:14;;;;;;;56.67;32.23;;;-5.50;99.90;;;;;;5051511;28;20464;-79
2022/12/19 03:34:49;;;;;;;56.13;32.67;;;-5.50;99.90;;;;;;5051997;28;20638;-77
2022/12/19 03:37:20;;;;;;;57.53;32.20;;;-5.50;99.90;;;;;;5051874;28;20437;-78
2022/12/19 03:39:52;;;;;;;64.53;33.70;;;-5.50;99.90;;;;;;5049939;28;20469;-79
2022/12/19 03:45:36;;;;;;;57.57;32.57;;;-5.50;99.90;;;;;;4983920;28;20543;-79
2022/12/19 03:48:10;;;;;;;59.20;32.77;;;-5.40;99.90;;;;;;4987965;28;20917;-76
2022/12/19 03:50:46;;;;;;;57.57;32.67;;;-5.40;99.90;;;;;;5020928;28;20531;-78
2022/12/19 03:53:25;;;;;;;58.97;32.83;;;-5.40;99.90;;;;;;5044242;28;20980;-79
2022/12/19 03:55:58;;;;;;;61.33;33.90;;;-5.30;99.90;;;;;;5032347;28;20450;-78
2022/12/19 03:58:31;;;;;;;60.30;32.97;;;-5.40;99.90;;;;;;5031932;28;20975;-81
2022/12/19 04:01:01;;;;;;;57.83;33.50;;;-5.40;99.90;;;;;;5031190;28;20567;-78
2022/12/19 04:03:32;;;;;;;58.93;32.47;;;-5.40;99.90;;;;;;5048976;28;20969;-79
2022/12/19 04:06:01;;;;;;;59.70;33.43;;;-5.30;99.90;;;;;;5048073;28;20458;-78
2022/12/19 04:08:31;;;;;;;57.90;33.03;;;-5.30;99.90;;;;;;5011771;28;20459;-79
2022/12/19 04:11:05;;;;;;;60.23;33.27;;;-5.30;99.90;;;;;;5027074;28;20461;-78
2022/12/19 04:13:37;;;;;;;58.03;32.07;;;-5.30;99.90;;;;;;5031117;28;20982;-76
2022/12/19 04:16:13;;;;;;;60.27;32.20;;;-5.30;99.90;;;;;;5031805;28;20465;-80
2022/12/19 04:18:47;;;;;;;58.23;32.63;;;-5.30;99.90;;;;;;5036104;28;20465;-78
2022/12/19 04:21:22;;;;;;;60.27;33.47;;;-5.30;99.90;;;;;;5051508;28;20469;-76
2022/12/19 04:23:57;;;;;;;58.30;32.40;;;-5.30;99.90;;;;;;5051356;28;20840;-77
2022/12/19 04:26:26;;;;;;;56.93;32.67;;;-5.30;99.90;;;;;;5051633;28;20440;-76
2022/12/19 04:28:58;;;;;;;58.37;31.63;;;-5.30;99.90;;;;;;5051392;28;20815;-78
2022/12/19 04:31:28;;;;;;;52.93;30.60;;;-5.30;99.90;;;;;;5061032;28;20497;-74
2022/12/19 04:33:58;;;;;;;54.13;31.83;;;-5.30;99.90;;;;;;5064199;28;20446;-78
2022/12/19 04:36:26;;;;;;;57.40;31.63;;;-5.30;99.90;;;;;;5053525;28;20469;-76
2022/12/19 04:38:57;;;;;;;58.97;33.07;;;-5.30;99.90;;;;;;5055229;28;20540;-77
2022/12/19 04:41:25;;;;;;;58.90;32.37;;;-5.30;99.90;;;;;;5054889;28;20497;-80
2022/12/19 04:43:53;;;;;;;57.13;32.63;;;-5.30;99.90;;;;;;5054597;28;20533;-79
2022/12/19 04:46:21;;;;;;;59.90;34.13;;;-5.30;99.90;;;;;;5053899;28;20761;-78
2022/12/19 04:48:49;;;;;;;61.20;33.17;;;-5.30;99.90;;;;;;5041347;28;20460;-80
2022/12/19 04:51:19;;;;;;;57.97;31.60;;;-5.20;99.90;;;;;;5035993;28;20520;-78
2022/12/19 04:53:47;;;;;;;59.87;33.03;;;-5.20;99.90;;;;;;5034500;28;20487;-77
2022/12/19 04:56:15;;;;;;;61.90;32.73;;;-5.10;99.90;;;;;;5055026;28;20454;-77
2022/12/19 04:58:43;;;;;;;57.60;31.97;;;-5.10;99.90;;;;;;5054610;28;20453;-75
2022/12/19 05:01:12;;;;;;;60.93;32.77;;;-5.10;99.90;;;;;;5058186;28;20552;-75
2022/12/19 05:03:41;;;;;;;59.23;32.97;;;-5.10;99.90;;;;;;5057428;28;20468;-76
2022/12/19 05:06:11;;;;;;;60.17;31.43;;;-5.10;99.90;;;;;;5027530;28;21069;-75
2022/12/19 05:08:43;;;;;;;58.37;31.43;;;-5.10;99.90;;;;;;5027167;28;20598;-77
2022/12/19 05:11:12;;;;;;;60.40;33.10;;;-5.10;99.90;;;;;;5040020;28;20467;-76
2022/12/19 05:13:46;;;;;;;58.67;31.47;;;-5.10;99.90;;;;;;5065482;28;20428;-75
2022/12/19 05:16:14;;;;;;;59.00;32.10;;;-5.00;99.90;;;;;;5061133;28;20959;-74
2022/12/19 05:18:45;;;;;;;59.40;33.17;;;-5.10;99.90;;;;;;5059447;28;20541;-74
2022/12/19 05:21:14;;;;;;;58.53;32.67;;;-5.10;99.90;;;;;;5060654;28;20495;-73
2022/12/19 05:23:43;;;;;;;60.40;33.57;;;-5.10;99.90;;;;;;5057583;28;20563;-77
2022/12/19 05:26:12;;;;;;;64.63;33.30;;;-5.10;99.90;;;;;;5055012;28;20902;-76
2022/12/19 05:28:40;;;;;;;60.53;33.23;;;-5.10;99.90;;;;;;5054745;28;20490;-77
2022/12/19 05:31:10;;;;;;;58.90;32.10;;;-5.10;99.90;;;;;;5053190;28;21019;-77
2022/12/19 05:33:40;;;;;;;58.87;32.60;;;-5.00;99.90;;;;;;5054370;28;20445;-73
2022/12/19 05:36:09;;;;;;;59.27;32.73;;;-5.10;99.90;;;;;;5054932;28;20466;-75
2022/12/19 05:38:37;;;;;;;60.40;33.77;;;-5.10;99.90;;;;;;5053062;28;20672;-76
2022/12/19 05:41:12;;;;;;;59.30;32.70;;;-5.10;99.90;;;;;;5058730;28;20455;-75
2022/12/19 05:43:40;;;;;;;58.70;32.40;;;-5.10;99.90;;;;;;5053975;28;20484;-76
2022/12/19 05:46:08;;;;;;;56.60;32.30;;;-5.00;99.90;;;;;;5053977;28;20924;-73
2022/12/19 05:48:37;;;;;;;58.53;31.67;;;-5.00;99.90;;;;;;5054267;28;20470;-75
2022/12/19 05:51:24;;;;;;;56.80;32.37;;;-5.00;99.90;;;;;;5054874;28;20421;-75
2022/12/19 05:53:52;;;;;;;57.00;32.63;;;-4.90;99.90;;;;;;5053886;28;20443;-72
2022/12/19 05:56:23;;;;;;;55.57;32.10;;;-4.90;99.90;;;;;;5054209;28;20549;-78
2022/12/19 05:58:51;;;;;;;58.87;32.67;;;-4.90;99.90;;;;;;5052918;28;21230;-75
2022/12/19 06:01:21;;;;;;;57.10;31.97;;;-4.90;99.90;;;;;;5055317;28;20505;-77
2022/12/19 06:03:49;;;;;;;56.77;32.47;;;-4.90;99.90;;;;;;5039077;28;20507;-76
2022/12/19 06:06:20;;;;;;;55.87;31.77;;;-4.90;99.90;;;;;;5013611;28;20468;-79
2022/12/19 06:08:53;;;;;;;60.97;32.23;;;-4.90;99.90;;;;;;5026826;28;20561;-77
2022/12/19 06:11:23;;;;;;;53.97;32.17;;;-4.80;99.90;;;;;;5052989;28;20489;-78
2022/12/19 06:13:51;;;;;;;54.83;31.57;;;-4.80;99.90;;;;;;5053107;28;20791;-79
2022/12/19 06:16:25;;;;;;;53.83;32.13;;;-4.80;99.90;;;;;;5053409;28;20454;-77
2022/12/19 06:18:53;;;;;;;55.00;31.73;;;-4.80;99.90;;;;;;5051798;28;20963;-78
2022/12/19 06:21:22;;;;;;;54.63;31.60;;;-4.90;99.90;;;;;;5052869;28;20949;-76
2022/12/19 06:23:50;;;;;;;54.27;32.37;;;-4.80;99.90;;;;;;5052472;28;20484;-79
2022/12/19 06:26:21;;;;;;;54.67;31.90;;;-4.80;99.90;;;;;;5051208;28;20554;-79
2022/12/19 06:28:55;;;;;;;51.70;30.80;;;-4.80;99.90;;;;;;5052562;28;20989;-77
2022/12/19 06:31:25;;;;;;;55.40;32.40;;;-4.70;99.90;;;;;;5052926;28;20470;-77
2022/12/19 06:33:55;;;;;;;56.27;32.47;;;-4.70;99.90;;;;;;5053028;28;20503;-79
2022/12/19 06:36:25;;;;;;;56.47;32.03;;;-4.70;99.90;;;;;;5051062;28;20465;-78
2022/12/19 06:38:57;;;;;;;55.97;32.80;;;-4.70;99.90;;;;;;5052968;28;20793;-80
2022/12/19 06:44:15;;;;;;;52.90;31.30;;;-4.60;99.90;;;;;;5052451;28;20557;-80
2022/12/19 06:46:44;;;;;;;53.47;31.57;;;-4.60;99.90;;;;;;5041122;28;20495;-74
2022/12/19 06:49:13;;;;;;;52.67;30.93;;;-4.70;99.90;;;;;;5025598;28;20467;-77
2022/12/19 06:51:41;;;;;;;54.47;31.90;;;-4.60;99.90;;;;;;5032059;28;20513;-79
2022/12/19 06:54:10;;;;;;;53.77;31.93;;;-4.60;99.90;;;;;;5035959;28;20465;-77
2022/12/19 06:56:39;;;;;;;56.10;31.97;;;-4.50;99.90;;;;;;5052143;28;20957;-79
2022/12/19 06:59:11;;;;;;;51.33;30.07;;;-4.60;99.90;;;;;;5052809;28;20500;-79
2022/12/19 07:01:52;;;;;;;58.27;33.00;;;-4.60;99.90;;;;;;5051533;28;20458;-78
2022/12/19 07:04:29;;;;;;;52.47;31.53;;;-4.60;99.90;;;;;;5027395;28;20987;-78
2022/12/19 07:06:58;;;;;;;55.40;31.37;;;-4.60;99.90;;;;;;5052512;28;20851;-78
2022/12/19 07:09:28;;;;;;;55.37;32.33;;;-4.50;99.90;;;;;;5052792;28;20478;-80
2022/12/19 07:12:01;;;;;;;51.20;30.87;;;-4.40;99.90;;;;;;5050081;28;21012;-78
2022/12/19 07:14:29;;;;;;;52.23;31.40;;;-4.50;99.90;;;;;;5052205;28;20522;-77
2022/12/19 07:17:01;;;;;;;56.03;32.10;;;-4.50;99.90;;;;;;5052481;28;20482;-78
2022/12/19 07:19:31;;;;;;;61.33;33.27;;;-4.40;99.90;;;;;;5052734;28;20542;-78
2022/12/19 07:22:04;;;;;;;56.60;32.70;;;-4.40;99.90;;;;;;5050259;28;20466;-78
2022/12/19 07:24:36;;;;;;;56.57;32.37;;;-4.30;99.90;;;;;;5052369;28;20482;-77
2022/12/19 07:27:07;;;;;;;56.57;32.37;;;-4.30;99.90;;;;;;5052270;28;20522;-77
2022/12/19 07:29:35;;;;;;;55.13;33.23;;;-4.30;99.90;;;;;;5035437;28;20483;-78
2022/12/19 07:32:05;;;;;;;55.33;32.50;;;-4.20;99.90;;;;;;5012310;28;20464;-77
2022/12/19 07:34:33;;;;;;;56.83;33.50;;;-4.20;99.90;;;;;;5012545;28;20440;-77
2022/12/19 07:37:02;;;;;;;57.20;32.33;;;-4.20;99.90;;;;;;5012159;28;20453;-75
2022/12/19 07:39:30;;;;;;;55.90;32.70;;;-4.20;99.90;;;;;;5052126;28;20459;-78
2022/12/19 07:41:58;;;;;;;52.47;33.00;;;-4.20;99.90;;;;;;5051726;28;20501;-79
2022/12/19 07:44:26;;;;;;;53.40;32.70;;;-4.00;99.90;;;;;;5052331;28;20569;-77
2022/12/19 07:46:54;;;;;;;54.37;32.00;;;-4.00;99.90;;;;;;5050333;28;20465;-78
2022/12/19 07:49:24;;;;;;;52.13;31.07;;;-3.90;99.90;;;;;;5051676;28;20464;-78
2022/12/19 07:51:52;;;;;;;53.20;31.47;;;-3.90;99.90;;;;;;5052062;28;20527;-78
2022/12/19 07:54:21;;;;;;;60.33;32.17;;;-3.90;99.90;;;;;;5050529;28;20459;-79
2022/12/19 07:56:49;;;;;;;47.60;30.30;;;-3.80;99.90;;;;;;5051746;28;20482;-79
2022/12/19 07:59:17;;;;;;;51.47;31.53;;;-3.70;99.90;;;;;;5051902;28;20537;-77
2022/12/19 08:01:45;;;;;;;49.33;31.60;;;-3.60;99.90;;;;;;5038228;28;20456;-75
2022/12/19 08:04:14;;;;;;;51.93;31.83;;;-3.50;99.90;;;;;;5053226;28;20493;-79
2022/12/19 08:06:46;;;;;;;47.73;30.30;;;-3.60;99.90;;;;;;5055211;28;20966;-78
2022/12/19 08:09:14;;;;;;;46.63;29.60;;;-3.50;99.90;;;;;;5055017;28;20909;-78
2022/12/19 08:11:42;;;;;;;45.30;29.40;;;-3.50;99.90;;;;;;5054078;28;20458;-79
2022/12/19 08:14:11;;;;;;;49.80;29.93;;;-3.30;99.90;;;;;;5055416;28;20533;-79
2022/12/19 08:16:39;;;;;;;45.40;29.40;;;-3.20;99.90;;;;;;5055246;28;20460;-78
2022/12/19 08:19:28;;;;;;;45.20;28.77;;;-3.10;99.90;;;;;;5053183;28;20457;-79
2022/12/19 08:21:57;;;;;;;52.50;31.03;;;-3.20;99.90;;;;;;5054973;28;20559;-77
2022/12/19 08:24:29;;;;;;;49.87;28.53;;;-3.20;99.90;;;;;;5055378;28;20566;-78
2022/12/19 08:26:58;;;;;;;47.10;30.03;;;-3.20;99.90;;;;;;5055365;28;20797;-78
2022/12/19 08:29:26;;;;;;;45.53;29.70;;;-3.10;99.90;;;;;;5053541;28;20888;-76
2022/12/19 08:31:55;;;;;;;48.13;29.30;;;-3.10;99.90;;;;;;5054808;28;20476;-76
2022/12/19 08:34:23;;;;;;;47.67;29.93;;;-3.10;99.90;;;;;;5055077;28;20453;-76
2022/12/19 08:36:51;;;;;;;46.00;29.23;;;-2.90;99.90;;;;;;5053308;28;20458;-76
2022/12/19 08:39:20;;;;;;;46.27;29.27;;;-2.90;99.90;;;;;;5055125;28;20451;-76
2022/12/19 08:41:48;;;;;;;47.57;29.67;;;-3.00;99.90;;;;;;5055574;28;20531;-74
2022/12/19 08:44:17;;;;;;;44.13;28.70;;;-2.70;99.90;;;;;;5054973;28;20525;-76
2022/12/19 08:46:45;;;;;;;46.77;29.23;;;-2.80;99.90;;;;;;5053543;28;20557;-73
2022/12/19 08:49:18;;;;;;;47.43;28.77;;;-2.80;99.90;;;;;;5055144;28;20463;-75
2022/12/19 08:51:46;;;;;;;47.63;28.70;;;-2.70;99.90;;;;;;5056809;28;20447;-78
2022/12/19 08:54:15;;;;;;;46.87;29.57;;;-2.70;99.90;;;;;;5057108;28;20558;-79
2022/12/19 08:56:47;;;;;;;49.57;30.10;;;-2.60;99.90;;;;;;5036998;28;20491;-79
2022/12/19 08:59:15;;;;;;;43.67;29.13;;;-2.40;99.90;;;;;;5034760;28;20880;-77
2022/12/19 09:01:58;;;;;;;48.40;30.23;;;-2.40;99.90;;;;;;5040053;28;20975;-75
2022/12/19 09:04:30;;;;;;;44.00;28.67;;;-2.40;99.90;;;;;;5041013;28;20491;-76
2022/12/19 09:07:18;;;;;;;50.40;29.27;;;-2.50;99.90;;;;;;5034374;28;20448;-77
2022/12/19 09:09:47;;;;;;;46.93;28.37;;;-2.30;99.90;;;;;;5034459;28;20447;-75
2022/12/19 09:12:16;;;;;;;47.73;30.13;;;-2.00;99.90;;;;;;5035003;28;20447;-77
2022/12/19 09:14:45;;;;;;;43.90;27.77;;;-2.00;99.90;;;;;;5051626;28;20463;-75
2022/12/19 09:17:13;;;;;;;48.50;29.17;;;-1.70;99.90;;;;;;5056925;28;20451;-76
2022/12/19 09:19:42;;;;;;;52.47;27.07;;;-1.80;99.90;;;;;;5056999;28;20965;-77
2022/12/19 09:22:15;;;;;;;46.73;27.80;;;-1.80;99.90;;;;;;5053398;28;20840;-75
2022/12/19 09:24:44;;;;;;;43.93;28.00;;;-1.80;99.90;;;;;;5055374;28;20489;-75
2022/12/19 09:27:12;;;;;;;44.03;27.83;;;-1.80;99.90;;;;;;5055978;28;20528;-77
2022/12/19 09:29:43;;;;;;;44.93;29.07;;;-1.70;99.90;;;;;;5055367;28;20455;-77
2022/12/19 09:32:11;;;;;;;41.83;27.37;;;-1.70;99.90;;;;;;5054162;28;20477;-76
2022/12/19 09:34:40;;;;;;;44.67;28.20;;;-1.70;99.90;;;;;;5054247;28;20809;-77
2022/12/19 09:37:10;;;;;;;44.77;27.93;;;-1.80;99.90;;;;;;5054242;28;20814;-76
2022/12/19 09:39:45;;;;;;;45.77;28.10;;;-1.70;99.90;;;;;;5052102;28;20466;-78
2022/12/19 09:42:33;;;;;;;41.83;27.73;;;-1.60;99.90;;;;;;5053806;28;20517;-77
2022/12/19 09:45:33;;;;;;;44.77;27.30;;;-1.60;99.90;;;;;;5052808;28;20475;-78
2022/12/19 09:48:02;;;;;;;40.53;26.57;;;-1.20;99.90;;;;;;5013855;28;20452;-78
2022/12/19 09:50:47;;;;;;;42.57;28.10;;;-0.90;99.90;;;;;;5014237;28;20587;-74
2022/12/19 09:53:25;;;;;;;42.97;27.87;;;-0.80;99.90;;;;;;5019919;28;20297;-74
2022/12/19 09:55:58;;;;;;;41.63;27.07;;;-0.70;99.90;;;;;;5053755;28;20520;-78
2022/12/19 09:58:39;;;;;;;40.73;26.93;;;-0.70;99.90;;;;;;5035977;28;20588;-78
2022/12/19 10:01:19;;;;;;;38.40;25.33;;;-0.50;99.90;;;;;;5014162;28;20439;-77
2022/12/19 10:03:57;;;;;;;36.17;25.37;;;-0.20;99.90;;;;;;5044613;28;20219;-79
2022/12/19 10:06:26;;;;;;;41.37;25.37;;;0.00;99.90;;;;;;5054475;28;20191;-78
2022/12/19 10:09:18;;;;;;;38.00;25.57;;;0.10;99.90;;;;;;5053271;28;20571;-79
2022/12/19 10:12:19;;;;;;;36.87;24.53;;;0.20;99.90;;;;;;5051331;28;20247;-78
2022/12/19 10:15:15;;;;;;;38.33;25.60;;;0.30;99.90;;;;;;5053217;28;20200;-76
2022/12/19 10:18:04;;;;;;;37.93;25.20;;;-0.10;99.90;;;;;;5036215;28;20196;-77
2022/12/19 10:20:37;;;;;;;40.37;27.00;;;0.20;99.90;;;;;;5054383;28;20199;-76
2022/12/19 10:23:19;;;;;;;36.67;26.00;;;0.20;99.90;;;;;;5016252;28;20624;-75
2022/12/19 10:25:57;;;;;;;38.27;25.70;;;0.20;99.90;;;;;;5013465;28;20240;-73
2022/12/19 10:28:42;;;;;;;38.97;26.53;;;-0.10;99.90;;;;;;5013683;28;20682;-78
2022/12/19 10:31:17;;;;;;;38.50;25.73;;;-0.20;99.90;;;;;;5055995;28;20319;-79
2022/12/19 10:33:57;;;;;;;39.97;26.33;;;0.30;99.90;;;;;;5053220;28;20623;-76
2022/12/19 10:36:27;;;;;;;38.53;26.47;;;0.30;99.90;;;;;;5055068;28;20208;-78
2022/12/19 10:39:23;;;;;;;42.03;27.20;;;0.30;99.90;;;;;;5051153;28;20231;-79
2022/12/19 10:41:57;;;;;;;37.43;26.20;;;0.20;99.90;;;;;;5052709;28;20273;-77
2022/12/19 10:44:29;;;;;;;46.37;28.97;;;0.30;99.90;;;;;;5053188;28;20299;-77
2022/12/19 10:46:58;;;;;;;39.73;26.90;;;0.30;99.90;;;;;;5052501;28;20631;-77
2022/12/19 10:49:29;;;;;;;40.47;26.43;;;0.50;99.90;;;;;;5051177;28;20208;-77
2022/12/19 10:52:02;;;;;;;41.60;27.93;;;0.40;99.90;;;;;;5052577;28;20192;-78
2022/12/19 10:54:42;;;;;;;37.20;26.20;;;0.40;99.90;;;;;;5052656;28;20189;-77
2022/12/19 10:57:24;;;;;;;37.43;26.53;;;0.50;99.90;;;;;;5032388;28;20209;-77
2022/12/19 10:59:58;;;;;;;35.07;25.73;;;0.50;99.90;;;;;;5051585;28;20271;-79
2022/12/19 11:02:42;;;;;;;35.20;25.23;;;0.80;99.90;;;;;;5052528;28;20196;-75
2022/12/19 11:05:26;;;;;;;37.30;25.63;;;0.60;99.90;;;;;;5052317;28;20212;-79
2022/12/19 11:08:15;;;;;;;36.80;26.37;;;0.50;99.90;;;;;;5050833;28;20211;-77
2022/12/19 11:10:46;;;;;;;45.83;29.17;;;0.10;99.90;;;;;;5053020;28;20598;-77
2022/12/19 11:13:41;;;;;;;40.33;26.30;;;0.20;99.90;;;;;;5052104;28;20205;-81
2022/12/19 11:16:36;;;;;;;41.13;26.97;;;0.10;99.90;;;;;;5050928;28;20283;-79
2022/12/19 11:19:34;;;;;;;38.77;26.90;;;0.20;99.90;;;;;;5051980;28;20211;-77
2022/12/19 11:22:26;;;;;;;37.43;26.40;;;0.20;99.90;;;;;;5051694;28;20223;-76
2022/12/19 11:25:18;;;;;;;37.40;25.90;;;0.40;99.90;;;;;;5051931;28;20235;-78
2022/12/19 11:28:15;;;;;;;37.40;25.83;;;0.50;99.90;;;;;;5052035;28;20196;-77
2022/12/19 11:31:09;;;;;;;37.80;25.33;;;0.80;99.90;;;;;;5055907;28;20232;-77
2022/12/19 11:34:04;;;;;;;36.73;25.87;;;1.00;99.90;;;;;;5051770;28;20204;-80
2022/12/19 11:36:38;;;;;;;38.17;25.93;;;0.70;99.90;;;;;;5012590;28;20564;-76
2022/12/19 11:39:16;;;;;;;40.33;26.87;;;1.00;99.90;;;;;;5014739;28;20590;-78
2022/12/19 11:41:58;;;;;;;37.60;25.70;;;1.10;99.90;;;;;;5018367;28;20212;-77
2022/12/19 11:44:29;;;;;;;36.27;25.37;;;1.50;99.90;;;;;;5052854;28;20199;-76
2022/12/19 11:47:05;;;;;;;35.70;24.93;;;1.60;99.90;;;;;;5048971;28;20224;-77
2022/12/19 11:49:37;;;;;;;35.03;24.93;;;2.30;99.90;;;;;;5054713;28;20242;-76
2022/12/19 11:52:15;;;;;;;36.00;24.97;;;2.00;99.90;;;;;;5021015;28;20213;-79
2022/12/19 11:55:07;;;;;;;33.40;24.70;;;1.90;99.90;;;;;;5020619;28;20205;-77
2022/12/19 11:57:38;;;;;;;33.50;23.93;;;2.40;99.90;;;;;;5053007;28;20213;-77
2022/12/19 12:00:12;;;;;;;32.97;24.23;;;2.40;99.90;;;;;;5045038;28;20291;-77
2022/12/19 12:03:10;;;;;;;30.27;22.30;;;2.30;99.90;;;;;;5036125;28;20219;-78
2022/12/19 12:05:44;;;;;;;31.00;23.57;;;2.20;99.90;;;;;;5055385;28;20224;-78
2022/12/19 12:08:44;;;;;;;32.03;23.27;;;2.00;99.90;;;;;;5055635;28;20215;-79
2022/12/19 12:11:42;;;;;;;31.90;23.83;;;2.10;99.90;;;;;;5036485;28;20736;-80
2022/12/19 12:14:37;;;;;;;32.57;24.50;;;1.90;99.90;;;;;;5055855;28;20212;-77
2022/12/19 12:17:42;;;;;;;35.40;25.33;;;1.70;99.90;;;;;;5016782;28;20200;-78
2022/12/19 12:20:36;;;;;;;36.70;25.50;;;1.50;99.90;;;;;;5015997;28;20209;-79
2022/12/19 12:23:30;;;;;;;41.97;25.70;;;1.50;99.90;;;;;;5038735;28;20216;-78
2022/12/19 12:26:26;;;;;;;38.73;26.87;;;1.30;99.90;;;;;;5055170;28;20232;-74
2022/12/19 12:29:21;;;;;;;37.47;26.50;;;1.50;99.90;;;;;;5056207;28;20223;-75
2022/12/19 12:32:25;;;;;;;37.57;25.33;;;1.10;99.90;;;;;;5045100;28;20301;-79
2022/12/19 12:35:29;;;;;;;36.07;25.97;;;1.20;99.90;;;;;;5035328;28;20224;-77
2022/12/19 12:38:37;;;;;;;39.87;27.90;;;1.30;99.90;;;;;;5035577;28;20208;-76
2022/12/19 12:42:02;;;;;;;40.30;24.93;;;1.30;99.90;;;;;;5056611;28;20223;-76
2022/12/19 12:44:15;;;;;;;37.90;25.67;;;1.00;99.90;;;;;;5057350;28;20215;-76
2022/12/19 12:46:48;;;;;;;35.77;26.10;;;1.00;99.90;;;;;;5059112;28;20212;-81
2022/12/19 12:49:39;;;;;;;40.50;26.97;;;1.10;99.90;;;;;;5054716;28;20216;-76
2022/12/19 12:52:12;;;;;;;41.87;29.03;;;1.10;99.90;;;;;;5054574;28;20228;-79
2022/12/19 12:54:46;;;;;;;38.53;25.43;;;1.00;99.90;;;;;;5044399;28;20204;-80
2022/12/19 12:57:34;;;;;;;37.97;26.30;;;0.80;99.90;;;;;;5036282;28;20573;-77
2022/12/19 13:00:22;;;;;;;37.63;27.03;;;0.90;99.90;;;;;;5034532;28;20205;-77
2022/12/19 13:03:02;;;;;;;39.67;27.63;;;0.70;99.90;;;;;;5033735;28;20631;-77
2022/12/19 13:05:52;;;;;;;39.73;27.20;;;0.80;99.90;;;;;;5035031;28;20201;-75
2022/12/19 13:08:37;;;;;;;41.07;28.33;;;0.80;99.90;;;;;;5036424;28;20189;-77
2022/12/19 13:12:58;;;;;;;46.43;28.77;;;0.70;99.90;;;;;;5034583;28;20252;-76